Time;durP1;ratioP1;P1;durP2;ratioP2;P2;SDS_P1;SDS_P2;PMS_P1;PMS_P2;Temp;Humidity;BMP_temperature;BMP_pressure;BME280_temperature;BME280_humidity;BME280_pressure;Samples;Min_cycle;Max_cycle;Signal;HPM_P1;HPM_P2
2023/11/25 00:00:47;;;;;;;;;2.50;2.00;;;;;5.73;58.86;101328.28;5102883;27;45364;-59
2023/11/25 00:03:13;;;;;;;;;8.50;4.00;;;;;5.69;58.21;101343.84;5067116;27;45430;-58
2023/11/25 00:05:39;;;;;;;;;7.75;4.50;;;;;5.67;58.37;101344.72;5098274;27;46110;-59
2023/11/25 00:08:04;;;;;;;;;5.25;4.25;;;;;5.64;58.74;101337.78;5093853;27;45649;-60
2023/11/25 00:10:30;;;;;;;;;8.75;4.00;;;;;5.61;58.72;101334.31;5110555;27;45203;-58
2023/11/25 00:12:55;;;;;;;;;7.75;3.00;;;;;5.59;58.85;101336.03;5081415;27;71142;-58
2023/11/25 00:15:23;;;;;;;;;7.00;3.50;;;;;5.60;59.06;101337.78;5101760;27;66171;-58
2023/11/25 00:17:49;;;;;;;;;6.00;3.00;;;;;5.57;59.04;101329.97;5064408;28;45367;-57
2023/11/25 00:20:15;;;;;;;;;7.25;4.00;;;;;5.57;59.17;101328.25;5084671;27;46042;-59
2023/11/25 00:22:41;;;;;;;;;6.75;3.00;;;;;5.56;59.18;101329.13;5096211;27;45252;-59
2023/11/25 00:25:08;;;;;;;;;7.00;3.00;;;;;5.55;59.60;101329.97;5085539;27;47202;-58
2023/11/25 00:27:34;;;;;;;;;4.50;3.00;;;;;5.54;59.35;101332.56;5091147;27;45298;-59
2023/11/25 00:29:59;;;;;;;;;4.50;3.50;;;;;5.52;59.52;101332.53;5100603;27;52982;-59
2023/11/25 00:32:24;;;;;;;;;5.75;4.25;;;;;5.49;59.47;101327.38;5092348;27;46842;-59
2023/11/25 00:34:50;;;;;;;;;3.00;3.00;;;;;5.48;59.46;101336.00;5094995;27;73537;-58
2023/11/25 00:37:16;;;;;;;;;3.00;2.00;;;;;5.46;59.70;101335.13;5098344;27;45306;-58
2023/11/25 00:39:41;;;;;;;;;6.00;3.50;;;;;5.43;59.62;101327.31;5100894;27;45312;-58
2023/11/25 00:42:07;;;;;;;;;3.25;3.00;;;;;5.44;59.87;101331.69;5101680;27;45264;-59
2023/11/25 00:44:32;;;;;;;;;7.25;3.00;;;;;5.44;59.80;101334.28;5099949;27;52981;-58
2023/11/25 00:46:58;;;;;;;;;3.25;3.00;;;;;5.42;60.04;101325.59;5074262;28;45323;-58
2023/11/25 00:49:24;;;;;;;;;7.00;4.00;;;;;5.39;60.09;101325.59;5097246;27;59481;-58
2023/11/25 00:51:50;;;;;;;;;2.75;2.00;;;;;5.38;60.01;101324.69;5100115;27;45532;-58
2023/11/25 00:54:17;;;;;;;;;3.00;3.00;;;;;5.36;60.31;101330.75;5093910;27;75417;-58
2023/11/25 00:56:42;;;;;;;;;4.00;3.00;;;;;5.38;60.18;101326.44;5099953;27;45558;-59
2023/11/25 00:59:08;;;;;;;;;6.00;3.75;;;;;5.36;60.25;101320.38;5098408;27;45489;-58
2023/11/25 01:01:33;;;;;;;;;6.00;4.50;;;;;5.36;60.58;101328.16;5099620;27;45130;-58
2023/11/25 01:03:58;;;;;;;;;2.00;2.00;;;;;5.36;60.26;101323.84;5093310;27;63934;-58
2023/11/25 01:06:23;;;;;;;;;7.00;3.00;;;;;5.38;60.55;101326.44;5086265;27;71081;-58
2023/11/25 01:08:49;;;;;;;;;3.00;3.00;;;;;5.38;60.51;101327.31;5078460;27;67312;-58
2023/11/25 01:11:18;;;;;;;;;7.50;5.00;;;;;5.35;60.48;101327.31;5101018;27;45431;-58
2023/11/25 01:13:43;;;;;;;;;5.00;2.75;;;;;5.36;60.59;101326.44;5092406;27;45437;-58
2023/11/25 01:16:16;;;;;;;;;3.00;3.00;;;;;5.34;60.61;101335.94;5103471;27;45290;-58
2023/11/25 01:18:41;;;;;;;;;6.25;3.00;;;;;5.32;60.67;101338.53;5091296;27;45422;-59
2023/11/25 01:21:07;;;;;;;;;2.00;2.00;;;;;5.33;60.67;101339.41;5093860;27;52342;-58
2023/11/25 01:23:32;;;;;;;;;5.50;2.50;;;;;5.32;60.92;101337.66;5094633;27;46319;-59
2023/11/25 01:25:57;;;;;;;;;4.25;2.00;;;;;5.32;60.93;101348.91;5100797;27;45326;-58
2023/11/25 01:28:23;;;;;;;;;3.00;3.00;;;;;5.31;61.04;101343.72;5074875;27;69095;-58
2023/11/25 01:30:49;;;;;;;;;6.25;3.25;;;;;5.33;61.02;101348.06;5085822;27;45284;-58
2023/11/25 01:33:14;;;;;;;;;3.25;2.00;;;;;5.33;60.96;101345.47;5100398;27;45985;-58
2023/11/25 01:35:39;;;;;;;;;6.50;3.00;;;;;5.33;60.96;101347.19;5096359;27;60074;-58
2023/11/25 01:38:05;;;;;;;;;7.00;3.75;;;;;5.32;61.19;101346.31;5095070;27;45852;-58
2023/11/25 01:40:32;;;;;;;;;8.50;4.00;;;;;5.33;61.10;101340.28;5095146;27;45235;-58
2023/11/25 01:42:57;;;;;;;;;7.00;2.00;;;;;5.32;61.16;101350.66;5095939;27;46140;-58
2023/11/25 01:45:24;;;;;;;;;3.00;3.00;;;;;5.28;61.34;101341.97;5095916;27;45639;-58
2023/11/25 01:47:49;;;;;;;;;3.75;3.75;;;;;5.28;61.14;101347.16;5095814;27;45355;-58
2023/11/25 01:50:15;;;;;;;;;5.00;2.50;;;;;5.27;61.39;101353.22;5080101;27;45254;-58
2023/11/25 01:52:41;;;;;;;;;2.25;2.25;;;;;5.26;61.62;101354.09;5095253;27;46102;-58
2023/11/25 01:55:08;;;;;;;;;4.25;2.00;;;;;5.24;61.46;101354.91;5090286;27;45641;-58
2023/11/25 01:57:34;;;;;;;;;3.50;2.00;;;;;5.22;61.67;101354.06;5080998;27;45341;-58
2023/11/25 02:00:07;;;;;;;;;6.50;3.50;;;;;5.22;61.45;101352.31;5096415;27;46306;-61
2023/11/25 02:02:35;;;;;;;;;3.00;3.00;;;;;5.20;61.77;101348.84;5095595;27;45466;-58
2023/11/25 02:05:03;;;;;;;;;5.50;3.75;;;;;5.20;61.74;101353.19;5097268;27;45971;-59
2023/11/25 02:07:29;;;;;;;;;8.00;3.00;;;;;5.21;61.71;101350.59;5090395;27;45359;-59
2023/11/25 02:09:55;;;;;;;;;6.00;4.00;;;;;5.18;61.84;101350.56;5089262;27;45290;-59
2023/11/25 02:12:20;;;;;;;;;6.50;2.00;;;;;5.18;61.84;101345.38;5093537;27;46900;-58
2023/11/25 02:14:47;;;;;;;;;3.00;2.00;;;;;5.20;61.94;101355.78;5097916;27;45498;-59
2023/11/25 02:17:15;;;;;;;;;2.00;2.00;;;;;5.19;62.17;101351.44;5100012;27;45419;-59
2023/11/25 02:19:44;;;;;;;;;8.00;2.50;;;;;5.19;61.99;101354.03;5100060;27;45416;-58
2023/11/25 02:22:10;;;;;;;;;6.25;2.00;;;;;5.18;62.22;101350.56;5097070;27;75809;-59
2023/11/25 02:24:38;;;;;;;;;3.00;2.00;;;;;5.18;62.23;101354.91;5106008;27;45237;-59
2023/11/25 02:27:05;;;;;;;;;2.25;2.25;;;;;5.14;62.22;101349.69;5081738;27;45391;-57
2023/11/25 02:29:32;;;;;;;;;3.00;2.75;;;;;5.12;62.36;101341.03;5095941;27;45481;-58
2023/11/25 02:31:58;;;;;;;;;2.25;2.00;;;;;5.10;62.26;101342.75;5101094;27;46300;-59
2023/11/25 02:34:27;;;;;;;;;2.50;2.00;;;;;5.07;62.52;101342.75;5099776;27;45956;-59
2023/11/25 02:36:52;;;;;;;;;6.50;2.75;;;;;5.07;62.50;101337.56;5090366;27;67140;-59
2023/11/25 02:39:20;;;;;;;;;3.50;3.50;;;;;5.06;62.76;101338.41;5089817;27;45354;-58
2023/11/25 02:41:49;;;;;;;;;7.25;3.25;;;;;5.07;62.84;101342.75;5097789;27;45253;-59
2023/11/25 02:44:16;;;;;;;;;4.50;1.75;;;;;5.08;62.64;101338.41;5068960;27;45497;-58
2023/11/25 02:46:45;;;;;;;;;6.00;3.50;;;;;5.07;62.60;101340.16;5094881;27;45324;-58
2023/11/25 02:49:14;;;;;;;;;5.25;2.25;;;;;5.07;62.96;101339.28;5093795;27;45251;-58
2023/11/25 02:51:55;;;;;;;;;8.25;4.25;;;;;5.07;62.91;101342.75;5093869;27;46422;-58
2023/11/25 02:54:22;;;;;;;;;1.00;1.00;;;;;5.09;63.22;101345.34;5097634;27;45406;-58
2023/11/25 02:56:47;;;;;;;;;3.75;2.00;;;;;5.09;63.20;101334.97;5094711;27;45484;-58
2023/11/25 02:59:12;;;;;;;;;2.50;2.00;;;;;5.10;63.21;101344.50;5090262;27;59180;-58
2023/11/25 03:01:47;;;;;;;;;2.00;2.00;;;;;5.10;63.06;101331.53;5088401;27;46103;-58
2023/11/25 03:04:13;;;;;;;;;6.00;2.00;;;;;5.10;63.32;101344.50;5089286;27;45289;-58
2023/11/25 03:06:39;;;;;;;;;12.00;3.00;;;;;5.09;63.19;101327.19;5081023;27;45693;-58
2023/11/25 03:09:06;;;;;;;;;6.50;2.00;;;;;5.08;63.19;101333.22;5077631;28;45239;-58
2023/11/25 03:11:31;;;;;;;;;3.00;1.00;;;;;5.08;63.36;101338.41;5098709;27;46985;-57
2023/11/25 03:13:57;;;;;;;;;3.00;2.00;;;;;5.05;63.58;101341.88;5097200;27;52554;-58
2023/11/25 03:16:24;;;;;;;;;6.00;3.00;;;;;5.05;63.40;101333.22;5097957;27;45675;-58
2023/11/25 03:18:50;;;;;;;;;4.50;4.00;;;;;5.04;63.70;101339.25;5092378;27;45302;-58
2023/11/25 03:21:18;;;;;;;;;3.00;2.00;;;;;5.03;63.79;101330.63;5094105;27;47152;-58
2023/11/25 03:23:43;;;;;;;;;4.75;2.75;;;;;5.03;63.80;101328.03;5096754;27;45552;-58
2023/11/25 03:26:11;;;;;;;;;6.75;2.00;;;;;5.04;63.64;101336.66;5095945;27;69424;-58
2023/11/25 03:28:37;;;;;;;;;5.00;3.00;;;;;5.02;63.97;101333.19;5095686;27;45232;-58
2023/11/25 03:31:04;;;;;;;;;3.00;2.50;;;;;5.01;64.09;101334.03;5090644;27;47014;-58
2023/11/25 03:33:29;;;;;;;;;6.50;2.25;;;;;5.01;63.93;101332.34;5102537;27;45489;-57
2023/11/25 03:35:54;;;;;;;;;4.50;2.25;;;;;5.00;64.12;101337.53;5093700;27;56405;-58
2023/11/25 03:38:20;;;;;;;;;3.00;2.50;;;;;5.00;64.11;101338.38;5092792;27;73345;-58
2023/11/25 03:40:45;;;;;;;;;10.75;2.25;;;;;5.00;64.20;101340.97;5101536;27;46342;-59
2023/11/25 03:43:10;;;;;;;;;2.75;1.00;;;;;4.99;64.30;101331.44;5090976;27;70863;-57
2023/11/25 03:45:36;;;;;;;;;4.50;3.00;;;;;4.99;64.11;101334.03;5097242;27;45274;-58
2023/11/25 03:48:01;;;;;;;;;3.00;3.00;;;;;5.00;64.19;101334.94;5099187;27;45412;-58
2023/11/25 03:50:27;;;;;;;;;3.75;2.00;;;;;4.98;64.47;101332.31;5100253;27;57199;-58
2023/11/25 03:52:52;;;;;;;;;7.50;4.25;;;;;5.02;64.53;101348.75;5092243;27;45225;-57
2023/11/25 03:55:19;;;;;;;;;5.50;4.25;;;;;5.00;64.66;101343.56;5090262;27;45526;-58
2023/11/25 03:57:44;;;;;;;;;6.25;3.00;;;;;5.02;64.72;101348.75;5101054;27;45552;-58
2023/11/25 04:00:16;;;;;;;;;2.00;1.00;;;;;5.02;64.53;101348.75;5101151;27;46093;-59
2023/11/25 04:02:42;;;;;;;;;6.25;2.00;;;;;5.02;64.50;101353.94;5100299;27;45279;-58
2023/11/25 04:05:08;;;;;;;;;6.50;2.00;;;;;5.02;64.63;101356.53;5092916;27;45341;-58
2023/11/25 04:07:33;;;;;;;;;2.75;2.00;;;;;5.01;64.75;101353.09;5070729;27;46136;-58
2023/11/25 04:09:59;;;;;;;;;11.00;2.50;;;;;5.03;64.76;101353.06;5095369;27;74236;-58
2023/11/25 04:12:24;;;;;;;;;7.00;2.75;;;;;5.04;64.82;101349.63;5099767;27;45158;-58
2023/11/25 04:14:50;;;;;;;;;2.50;2.25;;;;;5.05;64.77;101348.78;5101804;27;50516;-58
2023/11/25 04:17:15;;;;;;;;;2.25;2.00;;;;;5.05;64.78;101348.78;5092648;27;45320;-58
2023/11/25 04:19:41;;;;;;;;;5.00;3.00;;;;;5.06;64.75;101346.19;5111012;27;47078;-58
2023/11/25 04:22:06;;;;;;;;;5.75;2.00;;;;;5.04;64.71;101341.84;5093134;27;72027;-59
2023/11/25 04:24:32;;;;;;;;;2.25;2.25;;;;;5.01;64.75;101337.53;5094561;27;45397;-59
2023/11/25 04:26:58;;;;;;;;;2.50;2.50;;;;;5.00;64.88;101340.97;5099894;27;45476;-58
2023/11/25 04:29:23;;;;;;;;;2.00;2.00;;;;;5.02;65.11;101340.97;5098204;27;45407;-59
2023/11/25 04:31:49;;;;;;;;;2.75;2.00;;;;;5.01;65.07;101350.50;5097942;27;50703;-59
2023/11/25 04:34:15;;;;;;;;;4.75;1.50;;;;;5.00;65.03;101347.91;5096910;27;45375;-59
2023/11/25 04:36:40;;;;;;;;;6.25;2.00;;;;;5.01;65.14;101353.09;5078481;27;45482;-58
2023/11/25 04:39:05;;;;;;;;;3.00;3.00;;;;;5.00;64.98;101348.75;5099119;27;74532;-59
2023/11/25 04:41:31;;;;;;;;;8.00;3.00;;;;;4.99;65.22;101357.38;5099183;27;68380;-58
2023/11/25 04:43:56;;;;;;;;;6.50;2.75;;;;;4.95;65.02;101355.63;5098969;27;63854;-58
2023/11/25 04:46:21;;;;;;;;;3.50;2.00;;;;;4.93;65.63;101355.63;5098313;27;45565;-58
2023/11/25 04:48:47;;;;;;;;;6.50;3.00;;;;;4.95;65.42;101356.50;5101890;27;45993;-58
2023/11/25 04:51:12;;;;;;;;;7.00;3.25;;;;;4.97;65.13;101355.66;5098131;27;71910;-59
2023/11/25 04:53:37;;;;;;;;;6.25;3.25;;;;;4.94;65.68;101361.69;5100449;27;62507;-58
2023/11/25 04:56:04;;;;;;;;;4.00;2.00;;;;;4.94;65.55;101361.69;5097132;27;45220;-59
2023/11/25 04:58:29;;;;;;;;;4.25;3.00;;;;;4.95;65.60;101361.69;5097564;27;46310;-59
2023/11/25 05:00:56;;;;;;;;;4.25;2.75;;;;;4.97;65.75;101361.69;5094816;27;62428;-59
2023/11/25 05:03:21;;;;;;;;;6.25;2.00;;;;;4.97;65.81;101353.91;5091405;27;45369;-58
2023/11/25 05:05:47;;;;;;;;;6.00;3.00;;;;;5.01;65.92;101363.47;5074431;27;45495;-58
2023/11/25 05:08:12;;;;;;;;;6.00;4.00;;;;;5.05;66.02;101362.63;5090403;27;75529;-58
2023/11/25 05:10:37;;;;;;;;;2.75;2.50;;;;;5.09;65.86;101368.69;5084208;27;45496;-58
2023/11/25 05:13:04;;;;;;;;;4.25;2.75;;;;;5.08;65.86;101360.06;5094418;27;70389;-58
2023/11/25 05:15:29;;;;;;;;;6.25;5.00;;;;;5.08;65.88;101354.88;5097380;27;45372;-58
2023/11/25 05:17:55;;;;;;;;;3.75;3.00;;;;;5.08;65.89;101357.47;5099053;27;75708;-59
2023/11/25 05:20:21;;;;;;;;;3.00;2.00;;;;;5.12;66.05;101353.16;5097488;27;45402;-58
2023/11/25 05:22:46;;;;;;;;;5.75;2.75;;;;;5.13;66.24;101367.84;5099019;27;45429;-58
2023/11/25 05:25:13;;;;;;;;;6.75;4.25;;;;;5.16;66.44;101370.47;5099832;27;45363;-58
2023/11/25 05:27:39;;;;;;;;;10.50;2.75;;;;;5.19;65.82;101361.81;5099621;27;46498;-59
2023/11/25 05:30:05;;;;;;;;;6.00;4.25;;;;;5.17;66.17;101371.31;5099826;27;45732;-59
2023/11/25 05:32:31;;;;;;;;;7.00;3.25;;;;;5.14;65.84;101370.44;5100158;27;45215;-59
2023/11/25 05:34:57;;;;;;;;;14.00;5.00;;;;;5.12;66.33;101364.38;5095397;27;45373;-58
2023/11/25 05:37:22;;;;;;;;;3.00;2.75;;;;;5.13;66.25;101366.13;5098800;27;46044;-58
2023/11/25 05:39:50;;;;;;;;;5.25;3.75;;;;;5.10;66.31;101360.06;5097228;27;45354;-59
2023/11/25 05:42:23;;;;;;;;;7.75;3.50;;;;;5.11;66.34;101366.97;5098957;27;45427;-59
2023/11/25 05:44:48;;;;;;;;;3.00;3.00;;;;;5.07;66.31;101366.09;5097847;27;45384;-59
2023/11/25 05:47:14;;;;;;;;;6.25;2.25;;;;;5.02;66.42;101364.34;5097269;27;70126;-58
2023/11/25 05:49:40;;;;;;;;;8.50;2.00;;;;;4.99;66.54;101370.34;5097707;27;45498;-58
2023/11/25 05:52:06;;;;;;;;;4.25;2.00;;;;;4.98;66.89;101375.56;5099441;27;45426;-59
2023/11/25 05:54:31;;;;;;;;;4.00;2.00;;;;;4.98;66.99;101372.97;5100102;27;45575;-59
2023/11/25 05:56:56;;;;;;;;;3.75;2.00;;;;;4.95;66.98;101374.66;5080886;27;75143;-58
2023/11/25 05:59:22;;;;;;;;;7.25;2.00;;;;;4.93;67.04;101370.31;5099254;27;73262;-59
2023/11/25 06:01:47;;;;;;;;;6.25;3.00;;;;;4.93;67.39;101365.13;5099573;27;65844;-58
2023/11/25 06:04:12;;;;;;;;;3.00;2.00;;;;;4.95;67.27;101371.19;5092403;27;74492;-58
2023/11/25 06:06:38;;;;;;;;;4.25;2.00;;;;;4.93;67.27;101366.00;5087328;27;45811;-59
2023/11/25 06:09:05;;;;;;;;;7.00;3.00;;;;;4.92;67.51;101372.06;5094382;27;45819;-58
2023/11/25 06:11:32;;;;;;;;;6.50;4.75;;;;;4.92;67.51;101368.56;5085331;27;45364;-58
2023/11/25 06:13:58;;;;;;;;;4.00;3.00;;;;;4.93;67.72;101370.31;5095231;27;45442;-58
2023/11/25 06:16:24;;;;;;;;;9.50;3.00;;;;;4.93;67.63;101376.38;5098038;27;46069;-58
2023/11/25 06:18:51;;;;;;;;;3.00;2.25;;;;;4.93;67.96;101371.19;5096812;27;45717;-59
2023/11/25 06:21:16;;;;;;;;;6.00;3.00;;;;;4.94;67.84;101366.88;5093938;27;45232;-58
2023/11/25 06:23:42;;;;;;;;;3.25;2.00;;;;;4.94;67.85;101366.88;5075788;28;65622;-58
2023/11/25 06:26:10;;;;;;;;;7.50;3.75;;;;;4.94;68.27;101370.34;5092525;27;46224;-59
2023/11/25 06:28:43;;;;;;;;;2.25;2.25;;;;;4.94;68.09;101370.34;5096827;27;45277;-58
2023/11/25 06:31:09;;;;;;;;;5.00;3.00;;;;;4.92;68.27;101364.28;5101125;27;45169;-58
2023/11/25 06:33:35;;;;;;;;;6.75;4.25;;;;;4.93;68.23;101365.13;5097305;27;45587;-58
2023/11/25 06:36:00;;;;;;;;;6.75;3.50;;;;;4.95;68.28;101377.25;5078995;27;46137;-59
2023/11/25 06:38:26;;;;;;;;;7.50;6.00;;;;;4.97;68.41;101376.41;5095941;27;45323;-58
2023/11/25 06:40:51;;;;;;;;;5.25;4.75;;;;;4.97;68.59;101379.84;5098372;27;45377;-59
2023/11/25 06:43:16;;;;;;;;;6.25;5.75;;;;;4.98;68.72;101375.56;5097514;27;45510;-58
2023/11/25 06:45:44;;;;;;;;;6.50;4.75;;;;;4.99;68.51;101375.53;5101723;27;46215;-58
2023/11/25 06:48:10;;;;;;;;;1.50;1.50;;;;;5.00;68.65;101381.63;5082902;27;45426;-58
2023/11/25 06:50:35;;;;;;;;;5.00;2.00;;;;;5.02;68.72;101383.34;5084727;27;45363;-59
2023/11/25 06:53:01;;;;;;;;;7.50;4.25;;;;;5.05;68.70;101392.88;5100261;27;51367;-59
2023/11/25 06:55:26;;;;;;;;;8.00;3.75;;;;;5.06;68.54;101390.28;5104688;27;45398;-59
2023/11/25 06:57:51;;;;;;;;;7.00;6.00;;;;;5.05;68.66;101391.16;5099886;27;45370;-59
2023/11/25 07:00:17;;;;;;;;;12.00;3.75;;;;;5.07;68.65;101393.75;5076912;27;69117;-59
2023/11/25 07:02:42;;;;;;;;;7.00;5.75;;;;;4.99;68.48;101372.09;5098884;27;45290;-59
2023/11/25 07:05:09;;;;;;;;;6.00;3.75;;;;;5.04;68.69;101389.41;5080207;27;45557;-58
2023/11/25 07:07:34;;;;;;;;;7.00;3.00;;;;;5.04;69.10;101394.59;5083100;27;45844;-58
2023/11/25 07:10:00;;;;;;;;;5.25;3.00;;;;;5.07;68.69;101397.22;5095053;27;45141;-58
2023/11/25 07:12:25;;;;;;;;;6.00;2.00;;;;;5.09;68.93;101392.91;5084931;27;45291;-58
2023/11/25 07:14:51;;;;;;;;;3.00;2.25;;;;;5.07;68.58;101391.16;5084043;27;46795;-59
2023/11/25 07:17:16;;;;;;;;;7.25;3.00;;;;;5.06;68.75;101387.69;5083045;27;61575;-58
2023/11/25 07:19:42;;;;;;;;;7.75;3.00;;;;;5.04;68.68;101397.19;5102939;27;45528;-58
2023/11/25 07:22:08;;;;;;;;;5.00;3.00;;;;;5.01;68.72;101399.78;5098003;27;45468;-58
2023/11/25 07:24:39;;;;;;;;;6.50;3.75;;;;;4.99;68.97;101385.91;5100142;27;46156;-58
2023/11/25 07:27:06;;;;;;;;;7.50;4.00;;;;;5.00;68.85;101386.81;5099640;27;45532;-58
2023/11/25 07:29:32;;;;;;;;;10.00;3.00;;;;;4.97;69.23;101390.22;5102544;27;45378;-58
2023/11/25 07:32:00;;;;;;;;;7.25;4.50;;;;;4.98;69.08;101389.38;5102390;27;46315;-58
2023/11/25 07:34:25;;;;;;;;;11.75;3.75;;;;;4.95;69.18;101390.22;5098251;27;46548;-58
2023/11/25 07:36:50;;;;;;;;;4.25;3.00;;;;;4.93;69.15;101397.13;5099804;27;45319;-58
2023/11/25 07:39:19;;;;;;;;;8.00;5.50;;;;;4.91;69.43;101391.06;5102297;27;45806;-58
2023/11/25 07:41:44;;;;;;;;;5.50;4.00;;;;;4.90;69.50;101393.63;5100018;27;45552;-58
2023/11/25 07:44:11;;;;;;;;;4.00;3.75;;;;;4.89;69.58;101387.59;5084127;27;45281;-58
2023/11/25 07:46:36;;;;;;;;;7.00;3.00;;;;;4.89;69.57;101397.09;5099432;27;45411;-58
2023/11/25 07:49:02;;;;;;;;;2.00;2.00;;;;;4.89;69.82;101399.69;5099961;27;45434;-58
2023/11/25 07:51:27;;;;;;;;;7.25;3.00;;;;;4.89;70.05;101402.28;5079351;28;45400;-58
2023/11/25 07:53:53;;;;;;;;;11.50;5.00;;;;;4.91;69.78;101400.56;5097938;27;45631;-58
2023/11/25 07:56:18;;;;;;;;;5.50;2.50;;;;;4.93;69.79;101402.31;5100489;27;69486;-58
2023/11/25 07:58:43;;;;;;;;;7.50;5.00;;;;;4.93;69.74;101404.91;5100009;27;45404;-58
2023/11/25 08:01:09;;;;;;;;;7.25;3.25;;;;;4.92;69.89;101408.38;5102347;27;45289;-58
2023/11/25 08:03:34;;;;;;;;;8.25;4.75;;;;;4.93;70.26;101410.09;5091430;27;71200;-58
2023/11/25 08:05:59;;;;;;;;;6.50;5.25;;;;;4.98;69.89;101404.94;5095728;27;50985;-58
2023/11/25 08:08:25;;;;;;;;;5.75;3.00;;;;;5.00;70.15;101411.00;5094929;27;64255;-57
2023/11/25 08:10:50;;;;;;;;;6.50;3.00;;;;;5.03;70.06;101412.75;5091426;27;45537;-58
2023/11/25 08:13:19;;;;;;;;;5.25;1.75;;;;;5.07;70.17;101410.19;5094978;27;46083;-58
2023/11/25 08:15:45;;;;;;;;;6.75;3.00;;;;;5.12;70.31;101410.22;5096902;27;45783;-58
2023/11/25 08:18:10;;;;;;;;;10.50;3.00;;;;;5.16;70.16;101414.56;5101455;27;45221;-58
2023/11/25 08:20:36;;;;;;;;;9.00;4.25;;;;;5.19;70.09;101405.91;5096763;27;71631;-58
2023/11/25 08:23:01;;;;;;;;;6.50;4.50;;;;;5.22;69.85;101413.72;5082904;27;46025;-59
2023/11/25 08:25:27;;;;;;;;;11.00;4.25;;;;;5.24;69.96;101401.63;5098841;27;72020;-58
2023/11/25 08:27:52;;;;;;;;;6.75;4.75;;;;;5.24;69.91;101409.41;5100602;27;62664;-57
2023/11/25 08:30:17;;;;;;;;;3.25;3.25;;;;;5.25;70.08;101401.63;5100970;27;73318;-58
2023/11/25 08:32:43;;;;;;;;;8.25;6.00;;;;;5.27;69.78;101404.25;5097609;27;70353;-59
2023/11/25 08:35:09;;;;;;;;;8.50;6.00;;;;;5.27;70.22;101410.28;5098084;27;45456;-58
2023/11/25 08:37:38;;;;;;;;;8.00;4.50;;;;;5.28;70.03;101399.06;5099046;27;45269;-58
2023/11/25 08:40:09;;;;;;;;;12.00;6.50;;;;;5.33;70.03;101406.91;5097085;27;45293;-57
2023/11/25 08:42:35;;;;;;;;;6.75;5.50;;;;;5.33;70.14;101404.31;5099155;27;46385;-58
2023/11/25 08:45:02;;;;;;;;;3.00;3.00;;;;;5.37;70.10;101397.41;5097542;27;45390;-57
2023/11/25 08:47:27;;;;;;;;;10.50;3.75;;;;;5.37;69.95;101392.22;5100553;27;45239;-57
2023/11/25 08:49:52;;;;;;;;;8.00;5.00;;;;;5.38;69.99;101396.53;5100354;27;73797;-58
2023/11/25 08:52:19;;;;;;;;;8.00;4.25;;;;;5.39;70.34;101400.88;5097776;27;47246;-57
2023/11/25 08:54:48;;;;;;;;;7.50;6.50;;;;;5.39;70.36;101399.13;5100969;27;45238;-58
2023/11/25 08:57:15;;;;;;;;;2.00;1.25;;;;;5.43;70.18;101398.28;5098696;27;45449;-58
2023/11/25 08:59:41;;;;;;;;;6.75;4.50;;;;;5.46;70.35;101400.03;5100407;27;45470;-58
2023/11/25 09:02:09;;;;;;;;;8.75;5.25;;;;;5.52;70.28;101402.63;5100082;27;75673;-57
2023/11/25 09:04:35;;;;;;;;;8.25;4.00;;;;;5.56;70.11;101411.31;5092760;27;45813;-57
2023/11/25 09:07:01;;;;;;;;;7.50;6.75;;;;;5.57;70.22;101400.94;5082685;27;45228;-58
2023/11/25 09:09:26;;;;;;;;;8.75;6.50;;;;;5.60;70.24;101392.31;5089307;27;45462;-58
2023/11/25 09:11:53;;;;;;;;;7.75;5.25;;;;;5.60;70.23;101395.75;5098737;27;52544;-58
2023/11/25 09:14:20;;;;;;;;;10.25;5.50;;;;;5.63;70.38;101389.69;5101088;27;45503;-58
2023/11/25 09:16:45;;;;;;;;;11.25;5.75;;;;;5.66;70.26;101402.72;5095224;27;45405;-59
2023/11/25 09:19:12;;;;;;;;;7.25;7.00;;;;;5.70;70.27;101410.53;5082730;27;45260;-59
2023/11/25 09:21:38;;;;;;;;;13.50;8.00;;;;;5.75;70.23;101402.72;5095339;27;45414;-57
2023/11/25 09:24:04;;;;;;;;;12.25;8.75;;;;;5.81;70.35;101400.19;5099055;27;45255;-58
2023/11/25 09:26:29;;;;;;;;;12.00;5.00;;;;;5.86;70.18;101394.97;5080122;27;45270;-59
2023/11/25 09:28:55;;;;;;;;;8.75;5.75;;;;;5.93;70.31;101398.47;5098554;27;45201;-58
2023/11/25 09:31:20;;;;;;;;;13.50;6.50;;;;;5.99;70.16;101401.13;5099308;27;75884;-58
2023/11/25 09:33:46;;;;;;;;;3.00;3.00;;;;;6.03;70.03;101401.13;5090940;27;45233;-57
2023/11/25 09:36:12;;;;;;;;;13.00;7.75;;;;;6.08;70.14;101396.81;5075183;27;45326;-57
2023/11/25 09:38:38;;;;;;;;;14.00;7.50;;;;;6.13;70.28;101399.44;5100342;27;45473;-58
2023/11/25 09:41:05;;;;;;;;;6.00;6.00;;;;;6.19;69.94;101399.44;5093309;27;74393;-58
2023/11/25 09:43:31;;;;;;;;;11.75;7.25;;;;;6.22;69.80;101399.44;5089183;27;45284;-58
2023/11/25 09:45:56;;;;;;;;;6.50;6.00;;;;;6.24;69.84;101389.91;5082314;27;45292;-58
2023/11/25 09:48:23;;;;;;;;;7.50;6.25;;;;;6.34;69.77;101392.50;5097813;27;71128;-57
2023/11/25 09:50:52;;;;;;;;;8.00;6.00;;;;;6.37;69.82;101388.19;5096696;27;45538;-58
2023/11/25 09:53:25;;;;;;;;;7.00;4.50;;;;;6.44;69.52;101400.31;5098026;27;45500;-57
2023/11/25 09:56:04;;;;;;;;;15.25;4.00;;;;;6.49;69.31;101402.94;5095654;27;45264;-58
2023/11/25 09:58:32;;;;;;;;;8.75;4.00;;;;;6.53;69.40;101402.06;5096739;27;45580;-57
2023/11/25 10:00:57;;;;;;;;;8.75;6.00;;;;;6.61;69.36;101404.69;5097045;27;45905;-59
2023/11/25 10:03:26;;;;;;;;;8.00;6.25;;;;;6.69;69.23;101408.13;5079171;27;45366;-58
2023/11/25 10:05:51;;;;;;;;;8.00;6.00;;;;;6.78;69.04;101407.25;5096047;27;45191;-58
2023/11/25 10:08:16;;;;;;;;;11.75;6.00;;;;;6.83;68.87;101402.91;5089135;27;45463;-59
2023/11/25 10:10:58;;;;;;;;;7.25;6.00;;;;;6.91;68.72;101400.34;5093375;27;46077;-59
2023/11/25 10:13:23;;;;;;;;;12.50;4.00;;;;;6.98;68.69;101397.72;5096782;27;45786;-58
2023/11/25 10:15:51;;;;;;;;;9.00;5.25;;;;;7.04;68.51;101399.44;5100292;27;45476;-59
2023/11/25 10:18:16;;;;;;;;;7.75;6.25;;;;;7.12;68.32;101397.69;5095140;27;45362;-57
2023/11/25 10:20:43;;;;;;;;;10.25;6.75;;;;;7.18;68.23;101399.41;5066882;27;47308;-58
2023/11/25 10:23:08;;;;;;;;;8.25;7.25;;;;;7.22;68.04;101395.91;5100265;27;45865;-58
2023/11/25 10:25:34;;;;;;;;;11.50;6.00;;;;;7.27;67.77;101401.97;5081654;28;50051;-58
2023/11/25 10:28:00;;;;;;;;;23.00;13.50;;;;;7.33;67.71;101394.19;5100760;27;45503;-58
2023/11/25 10:30:26;;;;;;;;;6.75;4.00;;;;;7.38;67.68;101400.25;5103580;27;45315;-58
2023/11/25 10:32:54;;;;;;;;;11.50;5.00;;;;;7.42;67.54;101390.69;5067982;27;45355;-58
2023/11/25 10:35:21;;;;;;;;;11.00;5.75;;;;;7.48;67.34;101381.97;5102760;27;45223;-58
2023/11/25 10:37:46;;;;;;;;;8.25;5.25;;;;;7.54;67.19;101388.03;5098740;27;45322;-58
2023/11/25 10:40:16;;;;;;;;;6.00;4.50;;;;;7.57;67.20;101390.59;5099597;27;64341;-58
2023/11/25 10:42:42;;;;;;;;;13.50;5.25;;;;;7.64;67.03;101380.16;5082685;27;45806;-58
2023/11/25 10:45:18;;;;;;;;;4.50;3.75;;;;;7.68;66.91;101387.94;5101706;27;45293;-58
2023/11/25 10:47:44;;;;;;;;;7.00;4.00;;;;;7.74;66.85;101382.72;5095919;27;45339;-58
2023/11/25 10:50:10;;;;;;;;;9.25;8.00;;;;;7.79;66.69;101369.66;5100969;27;46624;-59
2023/11/25 10:52:38;;;;;;;;;7.25;4.00;;;;;7.86;66.69;101376.59;5102914;27;45174;-57
2023/11/25 10:55:06;;;;;;;;;9.00;7.00;;;;;7.90;66.64;101364.41;5085252;27;45438;-57
2023/11/25 10:57:32;;;;;;;;;9.75;7.75;;;;;7.97;66.30;101366.09;5063511;27;46142;-57
2023/11/25 10:59:58;;;;;;;;;3.00;2.50;;;;;8.00;66.31;101373.88;5101855;27;46386;-57
2023/11/25 11:02:29;;;;;;;;;16.75;7.25;;;;;8.00;65.76;101366.06;5067237;27;45857;-58
2023/11/25 11:04:59;;;;;;;;;6.75;4.25;;;;;8.04;65.69;101374.72;5094594;27;45269;-57
2023/11/25 11:07:26;;;;;;;;;14.00;4.75;;;;;8.12;65.81;101362.53;5094635;27;45372;-58
2023/11/25 11:09:56;;;;;;;;;12.00;2.25;;;;;8.31;65.54;101363.25;5087821;27;45413;-58
2023/11/25 11:12:38;;;;;;;;;9.50;2.00;;;;;8.40;65.08;101364.94;5092189;27;45395;-59
2023/11/25 11:15:06;;;;;;;;;12.75;9.25;;;;;8.49;64.77;101359.66;5099820;27;45478;-58
2023/11/25 11:17:42;;;;;;;;;12.25;7.50;;;;;8.61;64.96;101356.09;5106656;27;45369;-59
2023/11/25 11:20:12;;;;;;;;;6.25;5.00;;;;;8.58;64.57;101356.97;5084474;27;46108;-59
2023/11/25 11:22:44;;;;;;;;;6.25;3.75;;;;;8.60;64.08;101359.56;5102096;27;45345;-59
2023/11/25 11:25:19;;;;;;;;;4.00;3.00;;;;;8.60;64.29;101362.19;5102083;27;45169;-58
2023/11/25 11:28:01;;;;;;;;;9.00;3.50;;;;;8.59;63.97;101361.34;5084909;27;45300;-56